createdAt,value
2018-03-23T00:00:55.839Z,3.30
2018-03-23T00:03:23.579Z,3.40
2018-03-23T00:05:51.298Z,3.20
2018-03-23T00:08:18.954Z,3.50
2018-03-23T00:10:46.573Z,3.50
2018-03-23T00:13:14.225Z,3.50
2018-03-23T00:15:41.833Z,3.60
2018-03-23T00:18:10.398Z,3.40
2018-03-23T00:20:38.048Z,3.50
2018-03-23T00:23:05.658Z,3.40
2018-03-23T00:25:33.316Z,3.40
2018-03-23T00:28:01.120Z,3.20
2018-03-23T00:30:28.765Z,3.20
2018-03-23T00:32:56.377Z,3.20
2018-03-23T00:35:24.794Z,3.10
2018-03-23T00:37:52.405Z,3.10
2018-03-23T00:40:20.241Z,3.30
2018-03-23T00:42:47.889Z,2.90
2018-03-23T00:45:16.101Z,3.20
2018-03-23T00:47:44.529Z,3.10
2018-03-23T00:50:12.135Z,3.00
2018-03-23T00:52:39.791Z,3.10
2018-03-23T00:55:07.616Z,3.20
2018-03-23T00:57:35.509Z,3.20
2018-03-23T01:00:03.177Z,3.10
2018-03-23T01:02:30.836Z,3.10
2018-03-23T01:04:59.208Z,3.10
2018-03-23T01:07:26.856Z,2.90
2018-03-23T01:09:54.506Z,3.20
2018-03-23T01:12:22.149Z,3.10
2018-03-23T01:14:49.792Z,3.10
2018-03-23T01:17:17.405Z,2.80
2018-03-23T01:19:45.978Z,2.90
2018-03-23T01:22:15.272Z,2.70
2018-03-23T01:24:42.922Z,3.00
2018-03-23T01:27:10.565Z,2.60
2018-03-23T01:29:38.174Z,2.90
2018-03-23T01:32:06.022Z,2.90
2018-03-23T01:34:33.629Z,2.90
2018-03-23T01:37:01.275Z,2.90
2018-03-23T01:39:30.160Z,2.90
2018-03-23T01:41:57.825Z,2.70
2018-03-23T01:44:25.492Z,2.60
2018-03-23T01:46:54.137Z,2.60
2018-03-23T01:49:22.099Z,2.50
2018-03-23T01:51:49.741Z,2.50
2018-03-23T01:54:17.399Z,2.50
2018-03-23T01:56:45.016Z,2.50
2018-03-23T01:59:12.666Z,2.50
2018-03-23T02:01:41.093Z,2.50
2018-03-23T02:04:08.745Z,2.50
2018-03-23T02:06:36.977Z,2.40
2018-03-23T02:09:04.632Z,2.60
2018-03-23T02:11:32.269Z,2.60
2018-03-23T02:13:59.875Z,2.20
2018-03-23T02:16:28.294Z,2.20
2018-03-23T02:18:55.910Z,2.30
2018-03-23T02:21:23.588Z,2.50
2018-03-23T02:23:51.285Z,2.50
2018-03-23T02:26:18.897Z,2.60
2018-03-23T02:28:47.328Z,2.30
2018-03-23T02:31:14.950Z,2.50
2018-03-23T02:33:42.562Z,2.50
2018-03-23T02:36:10.216Z,2.60
2018-03-23T02:38:37.869Z,2.50
2018-03-23T02:41:05.489Z,2.40
2018-03-23T02:43:33.326Z,2.60
2018-03-23T02:46:01.933Z,2.60
2018-03-23T02:48:29.588Z,2.30
2018-03-23T02:50:57.193Z,2.30
2018-03-23T02:53:24.844Z,2.30
2018-03-23T02:55:52.494Z,2.20
2018-03-23T02:58:20.100Z,2.40
2018-03-23T03:00:47.738Z,2.60
2018-03-23T03:03:15.388Z,2.40
2018-03-23T03:05:43.157Z,2.60
2018-03-23T03:08:11.772Z,2.00
2018-03-23T03:10:39.384Z,2.40
2018-03-23T03:13:07.032Z,2.40
2018-03-23T03:15:35.534Z,2.00
2018-03-23T03:18:03.153Z,2.60
2018-03-23T03:20:30.801Z,2.60
2018-03-23T03:22:58.406Z,2.60
2018-03-23T03:25:26.051Z,2.60
2018-03-23T03:27:53.692Z,2.60
2018-03-23T03:30:21.298Z,2.60
2018-03-23T03:32:48.943Z,2.60
2018-03-23T03:35:16.620Z,2.70
2018-03-23T03:37:44.503Z,2.30
2018-03-23T03:40:12.124Z,2.50
2018-03-23T03:42:40.613Z,2.50
2018-03-23T03:45:08.221Z,2.50
2018-03-23T03:47:35.863Z,2.50
2018-03-23T03:50:03.584Z,2.50
2018-03-23T03:52:31.355Z,2.40
2018-03-23T03:54:58.968Z,2.60
2018-03-23T03:57:26.617Z,2.60
2018-03-23T03:59:54.274Z,2.60
2018-03-23T04:02:21.921Z,2.60
2018-03-23T04:04:49.533Z,2.60
2018-03-23T04:07:17.176Z,2.30
2018-03-23T04:09:44.991Z,2.50
2018-03-23T04:12:12.606Z,2.50
2018-03-23T04:14:40.248Z,2.50
2018-03-23T04:17:08.681Z,2.30
2018-03-23T04:19:36.362Z,2.50
2018-03-23T04:22:04.158Z,2.40
2018-03-23T04:24:32.572Z,2.60
2018-03-23T04:27:00.176Z,2.40
2018-03-23T04:29:27.824Z,2.60
2018-03-23T04:31:56.248Z,2.00
2018-03-23T04:34:23.862Z,2.30
2018-03-23T04:36:51.555Z,2.60
2018-03-23T04:39:19.155Z,2.60
2018-03-23T04:41:46.833Z,2.40
2018-03-23T04:44:14.684Z,2.60
2018-03-23T04:46:42.292Z,2.60
2018-03-23T04:49:10.673Z,2.00
2018-03-23T04:51:38.324Z,1.90
2018-03-23T04:54:05.972Z,2.00
2018-03-23T04:56:34.341Z,2.30
2018-03-23T04:59:02.088Z,2.30
2018-03-23T05:01:29.756Z,2.00
2018-03-23T05:03:57.686Z,2.30
2018-03-23T05:06:25.300Z,2.30
2018-03-23T05:08:52.945Z,2.00
2018-03-23T05:11:20.553Z,2.10
2018-03-23T05:13:48.363Z,1.90
2018-03-23T05:16:16.016Z,2.10
2018-03-23T05:18:43.673Z,1.90
2018-03-23T05:21:12.017Z,2.10
2018-03-23T05:23:40.425Z,1.90
2018-03-23T05:26:08.084Z,2.00
2018-03-23T05:28:36.173Z,2.10
2018-03-23T05:31:05.249Z,2.10
2018-03-23T05:33:33.304Z,2.10
2018-03-23T05:36:00.916Z,1.80
2018-03-23T05:38:28.758Z,2.30
2018-03-23T05:40:56.401Z,2.20
2018-03-23T05:43:24.009Z,2.30
2018-03-23T05:45:52.424Z,2.30
2018-03-23T05:48:20.085Z,2.10
2018-03-23T05:50:47.696Z,2.20
2018-03-23T05:53:16.121Z,2.30
2018-03-23T05:55:43.725Z,2.20
2018-03-23T05:58:12.467Z,2.40
2018-03-23T06:00:40.310Z,2.40
2018-03-23T06:03:07.948Z,2.40
2018-03-23T06:05:36.320Z,2.60
2018-03-23T06:08:04.062Z,2.50
2018-03-23T06:10:31.724Z,2.20
2018-03-23T06:12:59.381Z,2.30
2018-03-23T06:15:27.000Z,2.30
2018-03-23T06:17:54.645Z,2.10
2018-03-23T06:20:22.939Z,2.10
2018-03-23T06:22:50.601Z,2.30
2018-03-23T06:25:18.240Z,2.60
2018-03-23T06:27:45.889Z,2.30
2018-03-23T06:30:14.269Z,2.50
2018-03-23T06:32:42.697Z,2.60
2018-03-23T06:35:10.353Z,2.40
2018-03-23T06:37:37.958Z,2.60
2018-03-23T06:40:05.681Z,2.50
2018-03-23T06:42:33.319Z,2.10
2018-03-23T06:45:00.969Z,2.70
2018-03-23T06:47:28.611Z,2.70
2018-03-23T06:49:57.036Z,2.40
2018-03-23T06:52:24.721Z,2.40
2018-03-23T06:54:52.350Z,2.90
2018-03-23T06:57:20.004Z,2.80
2018-03-23T06:59:47.663Z,3.00
2018-03-23T07:02:15.305Z,2.70
2018-03-23T07:04:42.945Z,2.90
2018-03-23T07:07:11.317Z,3.20
2018-03-23T07:09:39.758Z,3.00
2018-03-23T07:12:07.425Z,3.00
2018-03-23T07:14:35.033Z,3.10
2018-03-23T07:17:02.677Z,3.10
2018-03-23T07:19:31.068Z,3.30
2018-03-23T07:21:59.523Z,3.20
2018-03-23T07:24:27.912Z,3.10
2018-03-23T07:26:55.592Z,3.00
2018-03-23T07:29:23.249Z,3.40
2018-03-23T07:31:50.866Z,3.40
2018-03-23T07:34:18.473Z,3.20
2018-03-23T07:36:46.122Z,3.40
2018-03-23T07:39:13.745Z,3.40
2018-03-23T07:41:41.395Z,2.90
2018-03-23T07:44:09.061Z,3.00
2018-03-23T07:46:36.715Z,3.30
2018-03-23T07:49:04.339Z,2.90
2018-03-23T07:51:32.004Z,3.20
2018-03-23T07:53:59.656Z,3.40
2018-03-23T07:56:27.312Z,3.40
2018-03-23T07:58:54.925Z,3.00
2018-03-23T08:01:22.571Z,3.20
2018-03-23T08:03:50.927Z,3.40
2018-03-23T08:06:18.576Z,3.10
2018-03-23T08:08:46.185Z,3.20
2018-03-23T08:11:13.836Z,3.00
2018-03-23T08:13:41.490Z,3.50
2018-03-23T08:16:09.105Z,3.50
2018-03-23T08:18:36.725Z,3.20
2018-03-23T08:21:04.477Z,3.50
2018-03-23T08:23:32.146Z,3.40
2018-03-23T08:25:59.791Z,3.40
2018-03-23T08:28:27.433Z,3.50
2018-03-23T08:30:55.091Z,3.30
2018-03-23T08:33:22.697Z,3.60
2018-03-23T08:35:51.061Z,3.50
2018-03-23T08:38:18.739Z,3.90
2018-03-23T08:40:46.353Z,3.80
2018-03-23T08:43:14.000Z,4.20
2018-03-23T08:45:41.616Z,4.00
2018-03-23T08:48:10.321Z,4.20
2018-03-23T08:50:37.935Z,4.00
2018-03-23T08:53:05.709Z,4.20
2018-03-23T08:55:33.363Z,4.10
2018-03-23T08:58:01.013Z,4.10
2018-03-23T09:00:28.645Z,4.10
2018-03-23T09:02:56.292Z,4.00
2018-03-23T09:05:23.958Z,4.20
2018-03-23T09:07:51.569Z,4.10
2018-03-23T09:10:19.221Z,4.10
2018-03-23T09:12:46.875Z,4.10
2018-03-23T09:15:14.508Z,4.00
2018-03-23T09:17:42.146Z,4.20
2018-03-23T09:20:10.792Z,4.30
2018-03-23T09:22:39.018Z,4.30
2018-03-23T09:25:06.711Z,4.30
2018-03-23T09:27:34.331Z,4.30
2018-03-23T09:30:01.988Z,4.30
2018-03-23T09:32:29.601Z,4.40
2018-03-23T09:34:57.248Z,4.70
2018-03-23T09:37:24.888Z,4.80
2018-03-23T09:39:52.546Z,4.70
2018-03-23T09:42:20.193Z,4.90
2018-03-23T09:44:48.110Z,5.30
2018-03-23T09:47:15.762Z,5.10
2018-03-23T09:49:43.638Z,5.20
2018-03-23T09:52:11.293Z,4.70
2018-03-23T09:54:38.905Z,5.20
2018-03-23T09:57:06.549Z,5.30
2018-03-23T09:59:34.165Z,5.20
2018-03-23T10:02:01.809Z,5.60
2018-03-23T10:04:29.445Z,5.40
2018-03-23T10:06:57.115Z,5.80
2018-03-23T10:09:24.729Z,5.30
2018-03-23T10:11:52.337Z,5.30
2018-03-23T10:14:19.985Z,5.90
2018-03-23T10:16:47.599Z,6.20
2018-03-23T10:19:15.286Z,6.00
2018-03-23T10:21:43.668Z,5.90
2018-03-23T10:24:11.305Z,6.10
2018-03-23T10:26:38.962Z,5.60
2018-03-23T10:29:06.635Z,6.00
2018-03-23T10:31:34.232Z,6.10
2018-03-23T10:34:01.888Z,6.00
2018-03-23T10:36:29.723Z,6.70
2018-03-23T10:38:57.385Z,6.10
2018-03-23T10:41:25.802Z,5.90
2018-03-23T10:43:53.422Z,6.40
2018-03-23T10:46:21.087Z,6.00
2018-03-23T10:48:48.759Z,6.60
2018-03-23T10:51:16.393Z,6.30
2018-03-23T10:53:44.804Z,6.00
2018-03-23T10:56:12.449Z,6.20
2018-03-23T10:58:40.106Z,6.60
2018-03-23T11:01:14.042Z,6.90
2018-03-23T11:03:41.684Z,6.80
2018-03-23T11:06:09.305Z,6.90
2018-03-23T11:08:37.277Z,7.00
2018-03-23T11:11:04.894Z,6.90
2018-03-23T11:13:32.554Z,7.00
2018-03-23T11:16:00.170Z,7.00
2018-03-23T11:18:28.402Z,7.20
2018-03-23T11:20:56.062Z,7.30
2018-03-23T11:23:24.227Z,7.20
2018-03-23T11:25:51.870Z,7.50
2018-03-23T11:28:19.553Z,7.40
2018-03-23T11:30:47.517Z,7.30
2018-03-23T11:33:15.132Z,7.00
2018-03-23T11:35:42.749Z,7.00
2018-03-23T11:38:10.472Z,6.90
2018-03-23T11:40:38.112Z,7.00
2018-03-23T11:43:05.728Z,6.40
2018-03-23T11:45:33.384Z,6.60
2018-03-23T11:48:01.027Z,6.70
2018-03-23T11:50:28.689Z,6.50
2018-03-23T11:52:56.341Z,6.70
2018-03-23T11:55:23.949Z,6.90
2018-03-23T11:57:51.592Z,7.10
2018-03-23T12:00:19.244Z,6.90
2018-03-23T12:02:46.911Z,7.40
2018-03-23T12:05:14.518Z,7.40
2018-03-23T12:07:42.165Z,7.40
2018-03-23T12:10:09.892Z,7.30
2018-03-23T12:12:37.537Z,7.70
2018-03-23T12:15:05.206Z,7.90
2018-03-23T12:17:32.819Z,7.70
2018-03-23T12:20:01.208Z,7.30
2018-03-23T12:22:28.862Z,7.50
2018-03-23T12:24:56.508Z,7.50
2018-03-23T12:27:24.227Z,7.50
2018-03-23T12:29:51.994Z,7.70
2018-03-23T12:32:19.606Z,7.60
2018-03-23T12:34:47.319Z,7.60
2018-03-23T12:37:14.901Z,7.70
2018-03-23T12:39:42.561Z,7.80
2018-03-23T12:42:10.846Z,7.40
2018-03-23T12:44:38.500Z,7.20
2018-03-23T12:47:06.160Z,7.30
2018-03-23T12:49:34.023Z,7.70
2018-03-23T12:52:01.837Z,7.80
2018-03-23T12:54:29.448Z,7.80
2018-03-23T12:56:57.075Z,7.70
2018-03-23T12:59:24.728Z,7.80
2018-03-23T13:01:52.365Z,7.70
2018-03-23T13:04:20.025Z,7.60
2018-03-23T13:06:47.640Z,8.20
2018-03-23T13:09:15.301Z,8.50
2018-03-23T13:11:42.933Z,8.20
2018-03-23T13:14:14.308Z,8.40
2018-03-23T13:16:43.424Z,8.50
2018-03-23T13:19:12.889Z,8.50
2018-03-23T13:21:40.500Z,8.40
2018-03-23T13:24:08.177Z,8.50
2018-03-23T13:26:36.417Z,8.20
2018-03-23T13:29:04.069Z,8.20
2018-03-23T13:31:33.834Z,8.40
2018-03-23T13:34:01.729Z,8.40
2018-03-23T13:36:29.351Z,8.10
2018-03-23T13:38:57.001Z,8.00
2018-03-23T13:41:24.620Z,8.10
2018-03-23T13:43:52.264Z,8.30
2018-03-23T13:46:19.914Z,8.60
2018-03-23T13:48:47.545Z,8.10
2018-03-23T13:51:15.195Z,8.20
2018-03-23T13:53:43.368Z,8.30
2018-03-23T13:56:11.062Z,8.10
2018-03-23T13:58:47.403Z,8.10
2018-03-23T14:01:20.721Z,8.30
2018-03-23T14:03:48.676Z,8.10
2018-03-23T14:06:16.293Z,8.10
2018-03-23T14:08:44.769Z,8.20
2018-03-23T14:11:12.606Z,8.00
2018-03-23T14:13:40.256Z,8.10
2018-03-23T14:16:07.877Z,8.10
2018-03-23T14:18:35.544Z,8.10
2018-03-23T14:21:03.172Z,8.10
2018-03-23T14:23:30.834Z,8.00
2018-03-23T14:25:59.213Z,8.20
2018-03-23T14:28:27.745Z,7.80
2018-03-23T14:30:55.720Z,8.00
2018-03-23T14:33:23.770Z,8.00
2018-03-23T14:35:52.168Z,8.00
2018-03-23T14:38:19.790Z,8.10
2018-03-23T14:40:47.437Z,8.20
2018-03-23T14:43:15.148Z,8.20
2018-03-23T14:45:42.911Z,7.80
2018-03-23T14:48:10.598Z,8.00
2018-03-23T14:50:39.298Z,7.80
2018-03-23T14:53:07.689Z,7.70
2018-03-23T14:55:36.107Z,7.70
2018-03-23T14:58:03.746Z,7.80
2018-03-23T15:00:31.400Z,7.80
2018-03-23T15:02:59.052Z,7.80
2018-03-23T15:05:26.678Z,7.70
2018-03-23T15:07:54.537Z,7.80
2018-03-23T15:10:22.298Z,8.10
2018-03-23T15:12:49.949Z,8.00
2018-03-23T15:15:17.601Z,8.20
2018-03-23T15:17:45.254Z,7.80
2018-03-23T15:20:12.865Z,7.70
2018-03-23T15:22:40.513Z,7.80
2018-03-23T15:25:08.125Z,7.60
2018-03-23T15:27:35.780Z,7.60
2018-03-23T15:30:03.456Z,7.70
2018-03-23T15:32:31.120Z,7.80
2018-03-23T15:34:59.341Z,7.70
2018-03-23T15:37:27.995Z,7.70
2018-03-23T15:39:55.650Z,7.80
2018-03-23T15:42:23.273Z,8.20
2018-03-23T15:44:51.002Z,8.30
2018-03-23T15:47:18.581Z,8.10
2018-03-23T15:49:46.241Z,7.60
2018-03-23T15:52:14.044Z,7.80
2018-03-23T15:54:41.652Z,7.70
2018-03-23T15:57:09.543Z,7.70
2018-03-23T15:59:37.195Z,8.10
2018-03-23T16:02:04.884Z,7.80
2018-03-23T16:04:32.514Z,7.80
2018-03-23T16:07:00.169Z,7.80
2018-03-23T16:09:27.817Z,7.70
2018-03-23T16:11:55.530Z,7.70
2018-03-23T16:14:23.177Z,7.70
2018-03-23T16:16:51.034Z,7.70
2018-03-23T16:19:18.641Z,7.80
2018-03-23T16:21:46.314Z,7.80
2018-03-23T16:24:13.936Z,7.80
2018-03-23T16:26:41.804Z,7.80
2018-03-23T16:29:09.460Z,7.60
2018-03-23T16:31:37.064Z,7.70
2018-03-23T16:34:04.709Z,7.60
2018-03-23T16:36:32.323Z,7.60
2018-03-23T16:38:59.977Z,7.60
2018-03-23T16:41:27.594Z,7.60
2018-03-23T16:43:55.442Z,7.70
2018-03-23T16:46:23.054Z,7.60
2018-03-23T16:48:50.710Z,7.60
2018-03-23T16:51:18.316Z,7.60
2018-03-23T16:53:46.187Z,7.80
2018-03-23T16:56:16.357Z,7.60
2018-03-23T16:58:43.981Z,7.60
2018-03-23T17:01:12.402Z,7.40
2018-03-23T17:03:41.524Z,7.50
2018-03-23T17:06:09.309Z,7.40
2018-03-23T17:08:37.761Z,7.40
2018-03-23T17:11:05.410Z,7.30
2018-03-23T17:13:33.419Z,7.50
2018-03-23T17:16:02.586Z,7.30
2018-03-23T17:18:30.198Z,7.40
2018-03-23T17:20:57.857Z,7.40
2018-03-23T17:23:27.159Z,7.40
2018-03-23T17:25:54.774Z,7.20
2018-03-23T17:28:23.364Z,7.30
2018-03-23T17:30:51.314Z,7.40
2018-03-23T17:33:19.082Z,7.20
2018-03-23T17:35:46.838Z,7.40
2018-03-23T17:38:14.466Z,7.40
2018-03-23T17:40:42.852Z,6.90
2018-03-23T17:43:15.074Z,7.10
2018-03-23T17:45:44.910Z,6.90
2018-03-23T17:48:16.915Z,6.90
2018-03-23T17:50:47.312Z,7.20
2018-03-23T17:53:21.141Z,7.00
2018-03-23T17:55:54.315Z,7.00
2018-03-23T17:58:22.280Z,7.10
2018-03-23T18:00:50.648Z,6.90
2018-03-23T18:03:18.316Z,7.00
2018-03-23T18:05:45.981Z,7.00
2018-03-23T18:08:13.997Z,7.00
2018-03-23T18:10:43.245Z,6.90
2018-03-23T18:13:10.859Z,6.80
2018-03-23T18:15:39.134Z,6.80
2018-03-23T18:18:08.793Z,6.60
2018-03-23T18:20:36.456Z,6.80
2018-03-23T18:23:04.784Z,7.00
2018-03-23T18:25:33.679Z,6.80
2018-03-23T18:28:01.364Z,6.90
2018-03-23T18:30:30.517Z,7.00
2018-03-23T18:33:02.845Z,6.80
2018-03-23T18:35:30.768Z,7.00
2018-03-23T18:37:59.704Z,6.70
2018-03-23T18:40:27.601Z,6.90
2018-03-23T18:42:55.227Z,7.00
2018-03-23T18:45:23.944Z,6.90
2018-03-23T18:47:53.351Z,7.00
2018-03-23T18:50:22.494Z,7.00
2018-03-23T18:52:50.148Z,6.70
2018-03-23T18:55:17.870Z,7.00
2018-03-23T18:57:47.721Z,6.90
2018-03-23T19:00:15.539Z,6.70
2018-03-23T19:02:43.306Z,6.70
2018-03-23T19:05:10.960Z,6.60
2018-03-23T19:07:41.748Z,6.70
2018-03-23T19:10:09.661Z,6.70
2018-03-23T19:12:37.279Z,6.40
2018-03-23T19:15:04.942Z,6.30
2018-03-23T19:17:34.148Z,6.20
2018-03-23T19:20:03.635Z,6.40
2018-03-23T19:22:35.689Z,6.40
2018-03-23T19:25:04.650Z,6.40
2018-03-23T19:27:37.616Z,6.20
2018-03-23T19:30:06.502Z,6.40
2018-03-23T19:32:34.360Z,6.00
2018-03-23T19:35:02.122Z,6.30
2018-03-23T19:37:29.887Z,6.20
2018-03-23T19:39:57.542Z,6.30
2018-03-23T19:42:25.206Z,6.40
2018-03-23T19:44:52.821Z,6.20
2018-03-23T19:47:21.198Z,6.00
2018-03-23T19:49:49.931Z,5.80
2018-03-23T19:52:17.552Z,6.00
2018-03-23T19:54:45.200Z,5.80
2018-03-23T19:57:13.649Z,6.00
2018-03-23T19:59:41.594Z,5.80
2018-03-23T20:02:09.253Z,6.10
2018-03-23T20:04:36.873Z,5.70
2018-03-23T20:07:05.228Z,6.00
2018-03-23T20:09:32.890Z,5.90
2018-03-23T20:12:01.340Z,6.10
2018-03-23T20:14:28.948Z,5.80
2018-03-23T20:16:56.601Z,5.90
2018-03-23T20:19:24.254Z,5.90
2018-03-23T20:21:52.690Z,5.80
2018-03-23T20:24:25.892Z,5.90
2018-03-23T20:26:53.552Z,5.70
2018-03-23T20:29:21.181Z,5.90
2018-03-23T20:31:54.516Z,6.00
2018-03-23T20:34:22.168Z,5.90
2018-03-23T20:36:49.785Z,6.00
2018-03-23T20:39:17.437Z,5.50
2018-03-23T20:41:45.051Z,5.80
2018-03-23T20:44:14.213Z,5.90
2018-03-23T20:46:41.994Z,5.80
2018-03-23T20:49:09.973Z,6.00
2018-03-23T20:51:37.580Z,6.00
2018-03-23T20:54:05.298Z,5.90
2018-03-23T20:56:33.725Z,6.00
2018-03-23T20:59:01.336Z,5.70
2018-03-23T21:01:29.008Z,6.00
2018-03-23T21:03:56.639Z,5.70
2018-03-23T21:06:24.297Z,5.50
2018-03-23T21:08:51.936Z,5.90
2018-03-23T21:11:19.548Z,5.40
2018-03-23T21:13:47.382Z,5.70
2018-03-23T21:16:14.985Z,5.90
2018-03-23T21:18:43.272Z,5.90
2018-03-23T21:21:10.898Z,5.90
2018-03-23T21:23:38.717Z,5.90
2018-03-23T21:26:06.349Z,5.60
2018-03-23T21:28:33.967Z,5.50
2018-03-23T21:31:01.634Z,5.70
2018-03-23T21:33:29.288Z,5.40
2018-03-23T21:35:56.948Z,5.40
2018-03-23T21:38:24.652Z,5.40
2018-03-23T21:40:53.032Z,5.60
2018-03-23T21:43:21.478Z,5.70
2018-03-23T21:45:49.220Z,5.60
2018-03-23T21:48:16.856Z,5.50
2018-03-23T21:50:44.661Z,5.40
2018-03-23T21:53:12.273Z,5.40
2018-03-23T21:55:39.928Z,5.40
2018-03-23T21:58:07.545Z,5.40
2018-03-23T22:00:35.165Z,5.60
2018-03-23T22:03:02.830Z,5.50
2018-03-23T22:05:30.474Z,5.40
2018-03-23T22:07:58.121Z,5.30
2018-03-23T22:10:25.794Z,5.30
2018-03-23T22:12:53.402Z,5.30
2018-03-23T22:15:21.045Z,5.50
2018-03-23T22:17:48.688Z,5.30
2018-03-23T22:20:16.669Z,5.30
2018-03-23T22:22:44.679Z,5.60
2018-03-23T22:25:13.055Z,5.40
2018-03-23T22:27:41.448Z,5.60
2018-03-23T22:30:09.875Z,5.30
2018-03-23T22:32:37.532Z,5.30
2018-03-23T22:35:05.410Z,5.30
2018-03-23T22:37:33.021Z,5.30
2018-03-23T22:40:00.673Z,5.30
2018-03-23T22:42:28.317Z,5.20
2018-03-23T22:44:56.706Z,5.40
2018-03-23T22:47:25.157Z,5.30
2018-03-23T22:49:53.569Z,5.30
2018-03-23T22:52:21.185Z,5.60
2018-03-23T22:54:48.844Z,5.30
2018-03-23T22:57:17.140Z,5.30
2018-03-23T22:59:44.863Z,5.50
2018-03-23T23:02:12.547Z,5.30
2018-03-23T23:04:40.305Z,5.40
2018-03-23T23:07:08.517Z,5.20
2018-03-23T23:09:36.304Z,5.30
2018-03-23T23:12:04.298Z,5.00
2018-03-23T23:14:31.907Z,5.10
2018-03-23T23:16:59.556Z,5.10
2018-03-23T23:19:27.171Z,5.00
2018-03-23T23:21:54.862Z,5.10
2018-03-23T23:24:23.374Z,5.10
2018-03-23T23:26:51.389Z,5.00
2018-03-23T23:29:19.004Z,5.10
2018-03-23T23:31:46.649Z,5.10
2018-03-23T23:34:15.213Z,5.50
2018-03-23T23:36:42.852Z,5.40
2018-03-23T23:39:10.505Z,5.10
2018-03-23T23:41:38.113Z,5.50
2018-03-23T23:44:06.064Z,5.10
2018-03-23T23:46:33.693Z,5.50
2018-03-23T23:49:01.349Z,5.30
2018-03-23T23:51:28.989Z,5.10
2018-03-23T23:53:56.637Z,5.00
2018-03-23T23:56:24.247Z,5.30
2018-03-23T23:58:52.244Z,5.10
